sensor_id;sensor_type;location;lat;lon;timestamp;P1;durP1;ratioP1;P2;durP2;ratioP2
75362;SDS011;64122;51.988;5.892;2023-02-10T00:00:38;336.05;;;30.85;;
75362;SDS011;64122;51.988;5.892;2023-02-10T00:03:07;247.90;;;27.77;;
75362;SDS011;64122;51.988;5.892;2023-02-10T00:05:36;310.77;;;30.80;;
75362;SDS011;64122;51.988;5.892;2023-02-10T00:08:05;234.52;;;27.48;;
75362;SDS011;64122;51.988;5.892;2023-02-10T00:10:36;299.13;;;26.48;;
75362;SDS011;64122;51.988;5.892;2023-02-10T00:13:05;247.63;;;26.38;;
75362;SDS011;64122;51.988;5.892;2023-02-10T00:15:37;232.63;;;25.27;;
75362;SDS011;64122;51.988;5.892;2023-02-10T00:18:06;255.23;;;25.63;;
75362;SDS011;64122;51.988;5.892;2023-02-10T00:20:35;290.83;;;28.63;;
75362;SDS011;64122;51.988;5.892;2023-02-10T00:23:05;319.90;;;32.97;;
75362;SDS011;64122;51.988;5.892;2023-02-10T00:25:34;246.00;;;25.83;;
75362;SDS011;64122;51.988;5.892;2023-02-10T00:28:04;233.68;;;24.70;;
75362;SDS011;64122;51.988;5.892;2023-02-10T00:30:34;193.23;;;21.63;;
75362;SDS011;64122;51.988;5.892;2023-02-10T00:33:06;174.00;;;22.20;;
75362;SDS011;64122;51.988;5.892;2023-02-10T00:35:36;138.27;;;20.95;;
75362;SDS011;64122;51.988;5.892;2023-02-10T00:38:05;92.70;;;20.88;;
75362;SDS011;64122;51.988;5.892;2023-02-10T00:40:34;151.60;;;22.75;;
75362;SDS011;64122;51.988;5.892;2023-02-10T00:43:03;132.20;;;21.08;;
75362;SDS011;64122;51.988;5.892;2023-02-10T00:45:33;145.38;;;22.58;;
75362;SDS011;64122;51.988;5.892;2023-02-10T00:48:05;153.68;;;22.45;;
75362;SDS011;64122;51.988;5.892;2023-02-10T00:50:34;197.73;;;22.65;;
75362;SDS011;64122;51.988;5.892;2023-02-10T00:53:03;148.60;;;20.67;;
75362;SDS011;64122;51.988;5.892;2023-02-10T00:55:33;255.95;;;25.20;;
75362;SDS011;64122;51.988;5.892;2023-02-10T00:58:02;137.68;;;18.42;;
75362;SDS011;64122;51.988;5.892;2023-02-10T01:00:31;168.60;;;21.80;;
75362;SDS011;64122;51.988;5.892;2023-02-10T01:03:01;216.60;;;23.77;;
75362;SDS011;64122;51.988;5.892;2023-02-10T01:05:33;275.33;;;27.38;;
75362;SDS011;64122;51.988;5.892;2023-02-10T01:08:02;198.88;;;22.40;;
75362;SDS011;64122;51.988;5.892;2023-02-10T01:10:32;241.52;;;22.80;;
75362;SDS011;64122;51.988;5.892;2023-02-10T01:13:02;166.15;;;19.80;;
75362;SDS011;64122;51.988;5.892;2023-02-10T01:15:33;175.02;;;20.90;;
75362;SDS011;64122;51.988;5.892;2023-02-10T01:18:02;208.23;;;21.60;;
75362;SDS011;64122;51.988;5.892;2023-02-10T01:20:34;245.40;;;22.45;;
75362;SDS011;64122;51.988;5.892;2023-02-10T01:23:07;186.95;;;20.15;;
75362;SDS011;64122;51.988;5.892;2023-02-10T01:25:37;177.02;;;18.95;;
75362;SDS011;64122;51.988;5.892;2023-02-10T01:28:08;171.20;;;21.30;;
75362;SDS011;64122;51.988;5.892;2023-02-10T01:30:37;219.25;;;23.23;;
75362;SDS011;64122;51.988;5.892;2023-02-10T01:33:06;212.90;;;21.05;;
75362;SDS011;64122;51.988;5.892;2023-02-10T01:35:39;282.95;;;24.17;;
75362;SDS011;64122;51.988;5.892;2023-02-10T01:38:08;181.85;;;18.90;;
75362;SDS011;64122;51.988;5.892;2023-02-10T01:40:37;148.60;;;19.83;;
75362;SDS011;64122;51.988;5.892;2023-02-10T01:43:09;105.97;;;17.83;;
75362;SDS011;64122;51.988;5.892;2023-02-10T01:45:42;167.55;;;19.02;;
75362;SDS011;64122;51.988;5.892;2023-02-10T01:48:11;167.95;;;19.17;;
75362;SDS011;64122;51.988;5.892;2023-02-10T01:50:44;186.73;;;20.60;;
75362;SDS011;64122;51.988;5.892;2023-02-10T01:53:17;216.30;;;21.50;;
75362;SDS011;64122;51.988;5.892;2023-02-10T01:55:47;273.17;;;24.40;;
75362;SDS011;64122;51.988;5.892;2023-02-10T01:58:20;141.07;;;18.05;;
75362;SDS011;64122;51.988;5.892;2023-02-10T02:00:53;189.20;;;21.08;;
75362;SDS011;64122;51.988;5.892;2023-02-10T02:03:23;172.77;;;20.05;;
75362;SDS011;64122;51.988;5.892;2023-02-10T02:05:55;179.85;;;19.35;;
75362;SDS011;64122;51.988;5.892;2023-02-10T02:08:25;214.02;;;22.35;;
75362;SDS011;64122;51.988;5.892;2023-02-10T02:10:59;183.70;;;19.67;;
75362;SDS011;64122;51.988;5.892;2023-02-10T02:16:35;175.45;;;18.67;;
75362;SDS011;64122;51.988;5.892;2023-02-10T02:19:17;173.70;;;21.50;;
75362;SDS011;64122;51.988;5.892;2023-02-10T02:22:24;119.57;;;16.75;;
75362;SDS011;64122;51.988;5.892;2023-02-10T02:25:10;133.85;;;16.48;;
75362;SDS011;64122;51.988;5.892;2023-02-10T02:27:56;164.68;;;18.60;;
75362;SDS011;64122;51.988;5.892;2023-02-10T02:30:41;207.57;;;21.48;;
75362;SDS011;64122;51.988;5.892;2023-02-10T02:33:31;135.32;;;16.35;;
75362;SDS011;64122;51.988;5.892;2023-02-10T02:36:06;138.07;;;16.48;;
75362;SDS011;64122;51.988;5.892;2023-02-10T02:38:39;119.57;;;16.60;;
75362;SDS011;64122;51.988;5.892;2023-02-10T02:41:10;106.45;;;16.05;;
75362;SDS011;64122;51.988;5.892;2023-02-10T02:43:39;99.78;;;16.67;;
75362;SDS011;64122;51.988;5.892;2023-02-10T02:46:12;112.28;;;17.25;;
75362;SDS011;64122;51.988;5.892;2023-02-10T02:51:29;67.20;;;15.23;;
75362;SDS011;64122;51.988;5.892;2023-02-10T02:54:14;78.10;;;15.55;;
75362;SDS011;64122;51.988;5.892;2023-02-10T02:56:50;104.38;;;15.52;;
75362;SDS011;64122;51.988;5.892;2023-02-10T02:59:29;109.88;;;18.33;;
75362;SDS011;64122;51.988;5.892;2023-02-10T03:02:02;71.22;;;15.68;;
75362;SDS011;64122;51.988;5.892;2023-02-10T03:04:39;79.68;;;16.55;;
75362;SDS011;64122;51.988;5.892;2023-02-10T03:07:09;167.32;;;18.00;;
75362;SDS011;64122;51.988;5.892;2023-02-10T03:09:39;86.38;;;15.90;;
75362;SDS011;64122;51.988;5.892;2023-02-10T03:12:09;59.60;;;16.85;;
75362;SDS011;64122;51.988;5.892;2023-02-10T03:14:39;89.47;;;16.35;;
75362;SDS011;64122;51.988;5.892;2023-02-10T03:17:09;133.27;;;18.08;;
75362;SDS011;64122;51.988;5.892;2023-02-10T03:19:41;127.88;;;18.40;;
75362;SDS011;64122;51.988;5.892;2023-02-10T03:22:11;71.25;;;16.25;;
75362;SDS011;64122;51.988;5.892;2023-02-10T03:24:44;152.00;;;17.70;;
75362;SDS011;64122;51.988;5.892;2023-02-10T03:27:16;96.32;;;17.35;;
75362;SDS011;64122;51.988;5.892;2023-02-10T03:29:45;93.28;;;16.58;;
75362;SDS011;64122;51.988;5.892;2023-02-10T03:32:15;89.18;;;16.05;;
75362;SDS011;64122;51.988;5.892;2023-02-10T03:34:48;194.02;;;19.17;;
75362;SDS011;64122;51.988;5.892;2023-02-10T03:37:17;168.77;;;19.33;;
75362;SDS011;64122;51.988;5.892;2023-02-10T03:39:46;129.98;;;18.92;;
75362;SDS011;64122;51.988;5.892;2023-02-10T03:42:16;78.30;;;15.43;;
75362;SDS011;64122;51.988;5.892;2023-02-10T03:44:45;57.03;;;15.27;;
75362;SDS011;64122;51.988;5.892;2023-02-10T03:47:14;88.90;;;16.65;;
75362;SDS011;64122;51.988;5.892;2023-02-10T03:49:44;75.53;;;16.40;;
75362;SDS011;64122;51.988;5.892;2023-02-10T03:52:15;103.18;;;15.70;;
75362;SDS011;64122;51.988;5.892;2023-02-10T03:54:45;68.22;;;16.02;;
75362;SDS011;64122;51.988;5.892;2023-02-10T03:57:14;98.95;;;17.83;;
75362;SDS011;64122;51.988;5.892;2023-02-10T03:59:44;59.75;;;15.65;;
75362;SDS011;64122;51.988;5.892;2023-02-10T04:02:13;59.17;;;15.48;;
75362;SDS011;64122;51.988;5.892;2023-02-10T04:04:42;64.40;;;15.95;;
75362;SDS011;64122;51.988;5.892;2023-02-10T04:07:12;75.80;;;15.73;;
75362;SDS011;64122;51.988;5.892;2023-02-10T04:09:44;73.97;;;16.70;;
75362;SDS011;64122;51.988;5.892;2023-02-10T04:12:13;146.77;;;20.40;;
75362;SDS011;64122;51.988;5.892;2023-02-10T04:14:42;63.33;;;15.75;;
75362;SDS011;64122;51.988;5.892;2023-02-10T04:17:12;65.20;;;16.05;;
75362;SDS011;64122;51.988;5.892;2023-02-10T04:19:45;50.00;;;15.38;;
75362;SDS011;64122;51.988;5.892;2023-02-10T04:22:14;34.80;;;15.02;;
75362;SDS011;64122;51.988;5.892;2023-02-10T04:24:46;90.82;;;16.73;;
75362;SDS011;64122;51.988;5.892;2023-02-10T04:27:15;69.07;;;15.55;;
75362;SDS011;64122;51.988;5.892;2023-02-10T04:29:45;89.85;;;18.45;;
75362;SDS011;64122;51.988;5.892;2023-02-10T04:32:14;75.45;;;16.83;;
75362;SDS011;64122;51.988;5.892;2023-02-10T04:34:43;60.33;;;16.08;;
75362;SDS011;64122;51.988;5.892;2023-02-10T04:37:13;95.70;;;17.02;;
75362;SDS011;64122;51.988;5.892;2023-02-10T04:39:42;49.55;;;14.77;;
75362;SDS011;64122;51.988;5.892;2023-02-10T04:42:14;70.50;;;17.58;;
75362;SDS011;64122;51.988;5.892;2023-02-10T04:44:44;49.88;;;15.90;;
75362;SDS011;64122;51.988;5.892;2023-02-10T04:47:13;50.47;;;15.38;;
75362;SDS011;64122;51.988;5.892;2023-02-10T04:49:42;44.88;;;15.05;;
75362;SDS011;64122;51.988;5.892;2023-02-10T04:52:11;71.57;;;16.77;;
75362;SDS011;64122;51.988;5.892;2023-02-10T04:54:41;66.07;;;17.85;;
75362;SDS011;64122;51.988;5.892;2023-02-10T04:57:10;33.80;;;16.27;;
75362;SDS011;64122;51.988;5.892;2023-02-10T04:59:42;38.42;;;15.20;;
75362;SDS011;64122;51.988;5.892;2023-02-10T05:02:11;44.25;;;15.88;;
75362;SDS011;64122;51.988;5.892;2023-02-10T05:04:40;45.03;;;18.63;;
75362;SDS011;64122;51.988;5.892;2023-02-10T05:07:10;64.55;;;18.05;;
75362;SDS011;64122;51.988;5.892;2023-02-10T05:09:40;40.60;;;17.27;;
75362;SDS011;64122;51.988;5.892;2023-02-10T05:12:09;42.05;;;17.60;;
75362;SDS011;64122;51.988;5.892;2023-02-10T05:14:38;53.13;;;17.48;;
75362;SDS011;64122;51.988;5.892;2023-02-10T05:17:10;82.50;;;19.48;;
75362;SDS011;64122;51.988;5.892;2023-02-10T05:19:40;48.38;;;17.58;;
75362;SDS011;64122;51.988;5.892;2023-02-10T05:22:09;63.70;;;20.02;;
75362;SDS011;64122;51.988;5.892;2023-02-10T05:24:38;64.30;;;19.52;;
75362;SDS011;64122;51.988;5.892;2023-02-10T05:27:08;65.38;;;20.27;;
75362;SDS011;64122;51.988;5.892;2023-02-10T05:29:37;48.85;;;18.75;;
75362;SDS011;64122;51.988;5.892;2023-02-10T05:32:09;50.75;;;18.25;;
75362;SDS011;64122;51.988;5.892;2023-02-10T05:34:38;57.78;;;18.85;;
75362;SDS011;64122;51.988;5.892;2023-02-10T05:37:07;80.07;;;18.67;;
75362;SDS011;64122;51.988;5.892;2023-02-10T05:39:37;126.53;;;19.13;;
75362;SDS011;64122;51.988;5.892;2023-02-10T05:42:06;156.50;;;20.65;;
75362;SDS011;64122;51.988;5.892;2023-02-10T05:44:35;174.38;;;23.83;;
75362;SDS011;64122;51.988;5.892;2023-02-10T05:47:04;152.80;;;21.35;;
75362;SDS011;64122;51.988;5.892;2023-02-10T05:49:36;139.60;;;21.20;;
75362;SDS011;64122;51.988;5.892;2023-02-10T05:52:06;142.02;;;19.30;;
75362;SDS011;64122;51.988;5.892;2023-02-10T05:54:35;164.32;;;23.00;;
75362;SDS011;64122;51.988;5.892;2023-02-10T05:57:05;195.43;;;21.33;;
75362;SDS011;64122;51.988;5.892;2023-02-10T05:59:35;215.80;;;24.27;;
75362;SDS011;64122;51.988;5.892;2023-02-10T06:02:04;154.65;;;21.88;;
75362;SDS011;64122;51.988;5.892;2023-02-10T06:04:34;133.20;;;22.67;;
75362;SDS011;64122;51.988;5.892;2023-02-10T06:07:05;80.18;;;18.75;;
75362;SDS011;64122;51.988;5.892;2023-02-10T06:09:35;62.60;;;18.17;;
75362;SDS011;64122;51.988;5.892;2023-02-10T06:12:05;106.97;;;19.50;;
75362;SDS011;64122;51.988;5.892;2023-02-10T06:14:34;115.97;;;20.45;;
75362;SDS011;64122;51.988;5.892;2023-02-10T06:17:04;175.15;;;25.30;;
75362;SDS011;64122;51.988;5.892;2023-02-10T06:19:37;155.82;;;21.80;;
75362;SDS011;64122;51.988;5.892;2023-02-10T06:24:38;78.50;;;17.60;;
75362;SDS011;64122;51.988;5.892;2023-02-10T06:27:07;101.53;;;19.70;;
75362;SDS011;64122;51.988;5.892;2023-02-10T06:29:37;138.00;;;22.13;;
75362;SDS011;64122;51.988;5.892;2023-02-10T06:32:06;69.95;;;18.92;;
75362;SDS011;64122;51.988;5.892;2023-02-10T06:34:38;150.93;;;21.63;;
75362;SDS011;64122;51.988;5.892;2023-02-10T06:37:07;54.03;;;20.27;;
75362;SDS011;64122;51.988;5.892;2023-02-10T06:39:36;59.67;;;19.05;;
75362;SDS011;64122;51.988;5.892;2023-02-10T06:42:06;65.35;;;20.27;;
75362;SDS011;64122;51.988;5.892;2023-02-10T06:44:35;47.67;;;18.95;;
75362;SDS011;64122;51.988;5.892;2023-02-10T06:47:04;44.58;;;20.08;;
75362;SDS011;64122;51.988;5.892;2023-02-10T06:49:34;44.30;;;19.70;;
75362;SDS011;64122;51.988;5.892;2023-02-10T06:52:06;45.85;;;19.38;;
75362;SDS011;64122;51.988;5.892;2023-02-10T06:54:35;53.30;;;20.20;;
75362;SDS011;64122;51.988;5.892;2023-02-10T06:57:05;56.08;;;20.33;;
75362;SDS011;64122;51.988;5.892;2023-02-10T06:59:34;73.15;;;21.63;;
75362;SDS011;64122;51.988;5.892;2023-02-10T07:02:03;52.17;;;20.35;;
75362;SDS011;64122;51.988;5.892;2023-02-10T07:04:35;46.38;;;21.15;;
75362;SDS011;64122;51.988;5.892;2023-02-10T07:07:07;70.15;;;21.50;;
75362;SDS011;64122;51.988;5.892;2023-02-10T07:09:36;51.55;;;20.60;;
75362;SDS011;64122;51.988;5.892;2023-02-10T07:12:06;56.60;;;20.88;;
75362;SDS011;64122;51.988;5.892;2023-02-10T07:14:35;64.43;;;19.65;;
75362;SDS011;64122;51.988;5.892;2023-02-10T07:17:04;57.20;;;20.50;;
75362;SDS011;64122;51.988;5.892;2023-02-10T07:19:34;59.28;;;20.27;;
75362;SDS011;64122;51.988;5.892;2023-02-10T07:22:03;55.13;;;20.48;;
75362;SDS011;64122;51.988;5.892;2023-02-10T07:24:35;54.67;;;20.02;;
75362;SDS011;64122;51.988;5.892;2023-02-10T07:27:05;43.25;;;20.83;;
75362;SDS011;64122;51.988;5.892;2023-02-10T07:29:34;42.40;;;20.55;;
75362;SDS011;64122;51.988;5.892;2023-02-10T07:32:03;38.42;;;19.63;;
75362;SDS011;64122;51.988;5.892;2023-02-10T07:34:33;96.20;;;21.60;;
75362;SDS011;64122;51.988;5.892;2023-02-10T07:37:02;82.07;;;22.95;;
75362;SDS011;64122;51.988;5.892;2023-02-10T07:39:34;53.42;;;22.35;;
75362;SDS011;64122;51.988;5.892;2023-02-10T07:42:04;54.40;;;22.63;;
75362;SDS011;64122;51.988;5.892;2023-02-10T07:44:52;71.13;;;23.88;;
75362;SDS011;64122;51.988;5.892;2023-02-10T07:47:21;78.50;;;24.33;;
75362;SDS011;64122;51.988;5.892;2023-02-10T07:49:51;86.93;;;25.25;;
75362;SDS011;64122;51.988;5.892;2023-02-10T07:52:20;103.07;;;22.08;;
75362;SDS011;64122;51.988;5.892;2023-02-10T07:54:52;164.02;;;28.55;;
75362;SDS011;64122;51.988;5.892;2023-02-10T07:57:21;101.40;;;24.00;;
75362;SDS011;64122;51.988;5.892;2023-02-10T07:59:50;110.93;;;23.42;;
75362;SDS011;64122;51.988;5.892;2023-02-10T08:02:20;64.95;;;22.40;;
75362;SDS011;64122;51.988;5.892;2023-02-10T08:04:49;49.08;;;20.00;;
75362;SDS011;64122;51.988;5.892;2023-02-10T08:07:21;57.30;;;20.88;;
75362;SDS011;64122;51.988;5.892;2023-02-10T08:09:53;51.80;;;20.98;;
75362;SDS011;64122;51.988;5.892;2023-02-10T08:12:22;61.30;;;18.77;;
75362;SDS011;64122;51.988;5.892;2023-02-10T08:14:51;105.25;;;22.33;;
75362;SDS011;64122;51.988;5.892;2023-02-10T08:17:21;64.28;;;19.48;;
75362;SDS011;64122;51.988;5.892;2023-02-10T08:19:50;52.78;;;20.50;;
75362;SDS011;64122;51.988;5.892;2023-02-10T08:22:19;102.03;;;21.58;;
75362;SDS011;64122;51.988;5.892;2023-02-10T08:24:49;65.97;;;21.20;;
75362;SDS011;64122;51.988;5.892;2023-02-10T08:27:21;52.45;;;22.48;;
75362;SDS011;64122;51.988;5.892;2023-02-10T08:29:50;53.00;;;20.02;;
75362;SDS011;64122;51.988;5.892;2023-02-10T08:32:20;54.53;;;19.42;;
75362;SDS011;64122;51.988;5.892;2023-02-10T08:34:49;57.03;;;19.02;;
75362;SDS011;64122;51.988;5.892;2023-02-10T08:37:19;57.45;;;18.88;;
75362;SDS011;64122;51.988;5.892;2023-02-10T08:39:48;49.83;;;18.55;;
75362;SDS011;64122;51.988;5.892;2023-02-10T08:42:17;52.58;;;20.67;;
75362;SDS011;64122;51.988;5.892;2023-02-10T08:44:49;69.13;;;19.80;;
75362;SDS011;64122;51.988;5.892;2023-02-10T08:47:19;52.53;;;19.30;;
75362;SDS011;64122;51.988;5.892;2023-02-10T08:49:48;38.33;;;17.67;;
75362;SDS011;64122;51.988;5.892;2023-02-10T08:52:18;62.25;;;19.15;;
75362;SDS011;64122;51.988;5.892;2023-02-10T08:54:47;41.35;;;19.70;;
75362;SDS011;64122;51.988;5.892;2023-02-10T08:57:16;49.03;;;15.98;;
75362;SDS011;64122;51.988;5.892;2023-02-10T08:59:46;52.83;;;18.30;;
75362;SDS011;64122;51.988;5.892;2023-02-10T09:02:17;40.05;;;17.50;;
75362;SDS011;64122;51.988;5.892;2023-02-10T09:04:47;39.17;;;19.05;;
75362;SDS011;64122;51.988;5.892;2023-02-10T09:07:16;39.60;;;18.63;;
75362;SDS011;64122;51.988;5.892;2023-02-10T09:09:45;37.30;;;19.60;;
75362;SDS011;64122;51.988;5.892;2023-02-10T09:12:15;42.50;;;19.80;;
75362;SDS011;64122;51.988;5.892;2023-02-10T09:14:44;48.30;;;19.67;;
75362;SDS011;64122;51.988;5.892;2023-02-10T09:17:16;46.13;;;19.02;;
75362;SDS011;64122;51.988;5.892;2023-02-10T09:19:45;68.15;;;20.73;;
75362;SDS011;64122;51.988;5.892;2023-02-10T09:22:14;37.30;;;17.35;;
75362;SDS011;64122;51.988;5.892;2023-02-10T09:24:44;43.90;;;19.67;;
75362;SDS011;64122;51.988;5.892;2023-02-10T09:27:14;38.47;;;18.45;;
75362;SDS011;64122;51.988;5.892;2023-02-10T09:29:44;40.42;;;18.75;;
75362;SDS011;64122;51.988;5.892;2023-02-10T09:32:16;41.85;;;18.60;;
75362;SDS011;64122;51.988;5.892;2023-02-10T09:34:45;47.53;;;20.65;;
75362;SDS011;64122;51.988;5.892;2023-02-10T09:37:15;40.20;;;18.98;;
75362;SDS011;64122;51.988;5.892;2023-02-10T09:39:44;42.55;;;18.00;;
75362;SDS011;64122;51.988;5.892;2023-02-10T09:42:16;40.95;;;19.70;;
75362;SDS011;64122;51.988;5.892;2023-02-10T09:44:52;38.80;;;17.10;;
75362;SDS011;64122;51.988;5.892;2023-02-10T09:47:38;39.80;;;18.33;;
75362;SDS011;64122;51.988;5.892;2023-02-10T09:50:22;47.35;;;20.00;;
75362;SDS011;64122;51.988;5.892;2023-02-10T09:53:01;41.70;;;18.95;;
75362;SDS011;64122;51.988;5.892;2023-02-10T09:55:36;42.35;;;19.42;;
75362;SDS011;64122;51.988;5.892;2023-02-10T09:58:14;43.28;;;19.73;;
75362;SDS011;64122;51.988;5.892;2023-02-10T10:00:47;44.60;;;18.75;;
75362;SDS011;64122;51.988;5.892;2023-02-10T10:03:24;49.85;;;19.85;;
75362;SDS011;64122;51.988;5.892;2023-02-10T10:06:02;43.08;;;19.85;;
75362;SDS011;64122;51.988;5.892;2023-02-10T10:08:40;44.97;;;19.80;;
75362;SDS011;64122;51.988;5.892;2023-02-10T10:14:08;45.72;;;20.75;;
75362;SDS011;64122;51.988;5.892;2023-02-10T10:16:48;48.83;;;20.40;;
75362;SDS011;64122;51.988;5.892;2023-02-10T10:19:36;52.10;;;19.58;;
75362;SDS011;64122;51.988;5.892;2023-02-10T10:22:21;43.85;;;19.65;;
75362;SDS011;64122;51.988;5.892;2023-02-10T10:25:07;40.65;;;19.05;;
75362;SDS011;64122;51.988;5.892;2023-02-10T10:27:50;40.40;;;19.15;;
75362;SDS011;64122;51.988;5.892;2023-02-10T10:30:32;44.47;;;19.45;;
75362;SDS011;64122;51.988;5.892;2023-02-10T10:33:13;45.08;;;21.80;;
75362;SDS011;64122;51.988;5.892;2023-02-10T10:35:53;42.50;;;19.02;;
75362;SDS011;64122;51.988;5.892;2023-02-10T10:38:28;46.38;;;19.02;;
75362;SDS011;64122;51.988;5.892;2023-02-10T10:43:32;44.58;;;19.05;;
75362;SDS011;64122;51.988;5.892;2023-02-10T10:46:15;40.38;;;17.30;;
75362;SDS011;64122;51.988;5.892;2023-02-10T10:48:49;46.45;;;19.13;;
75362;SDS011;64122;51.988;5.892;2023-02-10T10:51:22;43.60;;;19.05;;
75362;SDS011;64122;51.988;5.892;2023-02-10T10:53:52;46.17;;;20.05;;
75362;SDS011;64122;51.988;5.892;2023-02-10T10:56:26;44.05;;;18.92;;
75362;SDS011;64122;51.988;5.892;2023-02-10T10:59:06;63.72;;;28.30;;
75362;SDS011;64122;51.988;5.892;2023-02-10T11:01:41;45.15;;;19.75;;
75362;SDS011;64122;51.988;5.892;2023-02-10T11:04:12;49.08;;;21.48;;
75362;SDS011;64122;51.988;5.892;2023-02-10T11:06:46;43.88;;;20.00;;
75362;SDS011;64122;51.988;5.892;2023-02-10T11:09:21;47.10;;;19.75;;
75362;SDS011;64122;51.988;5.892;2023-02-10T11:12:00;46.72;;;19.08;;
75362;SDS011;64122;51.988;5.892;2023-02-10T11:14:36;47.60;;;19.08;;
75362;SDS011;64122;51.988;5.892;2023-02-10T11:17:17;45.67;;;19.92;;
75362;SDS011;64122;51.988;5.892;2023-02-10T11:19:54;44.72;;;20.08;;
75362;SDS011;64122;51.988;5.892;2023-02-10T11:22:31;58.58;;;22.75;;
75362;SDS011;64122;51.988;5.892;2023-02-10T11:25:02;50.10;;;19.92;;
75362;SDS011;64122;51.988;5.892;2023-02-10T11:27:52;43.97;;;18.00;;
75362;SDS011;64122;51.988;5.892;2023-02-10T11:30:26;45.65;;;17.95;;
75362;SDS011;64122;51.988;5.892;2023-02-10T11:32:57;42.83;;;18.75;;
75362;SDS011;64122;51.988;5.892;2023-02-10T11:35:28;46.25;;;18.30;;
75362;SDS011;64122;51.988;5.892;2023-02-10T11:38:03;45.55;;;19.02;;
75362;SDS011;64122;51.988;5.892;2023-02-10T11:40:46;40.03;;;17.83;;
75362;SDS011;64122;51.988;5.892;2023-02-10T11:43:18;46.33;;;16.70;;
75362;SDS011;64122;51.988;5.892;2023-02-10T11:45:51;47.03;;;19.30;;
75362;SDS011;64122;51.988;5.892;2023-02-10T11:48:22;44.70;;;17.85;;
75362;SDS011;64122;51.988;5.892;2023-02-10T11:51:00;41.53;;;17.80;;
75362;SDS011;64122;51.988;5.892;2023-02-10T11:53:34;51.05;;;20.88;;
75362;SDS011;64122;51.988;5.892;2023-02-10T11:56:07;43.13;;;17.40;;
75362;SDS011;64122;51.988;5.892;2023-02-10T11:58:48;36.40;;;16.52;;
75362;SDS011;64122;51.988;5.892;2023-02-10T12:01:31;46.88;;;18.73;;
75362;SDS011;64122;51.988;5.892;2023-02-10T12:04:14;67.25;;;29.50;;
75362;SDS011;64122;51.988;5.892;2023-02-10T12:07:01;45.50;;;15.52;;
75362;SDS011;64122;51.988;5.892;2023-02-10T12:09:46;44.42;;;16.20;;
75362;SDS011;64122;51.988;5.892;2023-02-10T12:12:22;38.97;;;15.60;;
75362;SDS011;64122;51.988;5.892;2023-02-10T12:14:58;53.35;;;21.35;;
75362;SDS011;64122;51.988;5.892;2023-02-10T12:17:37;36.17;;;14.75;;
75362;SDS011;64122;51.988;5.892;2023-02-10T12:20:25;44.38;;;17.73;;
75362;SDS011;64122;51.988;5.892;2023-02-10T12:23:25;38.03;;;14.77;;
75362;SDS011;64122;51.988;5.892;2023-02-10T12:26:07;37.33;;;14.73;;
75362;SDS011;64122;51.988;5.892;2023-02-10T12:28:48;44.78;;;18.42;;
75362;SDS011;64122;51.988;5.892;2023-02-10T12:31:28;43.55;;;14.93;;
75362;SDS011;64122;51.988;5.892;2023-02-10T12:34:19;39.10;;;15.32;;
75362;SDS011;64122;51.988;5.892;2023-02-10T12:37:07;49.63;;;22.55;;
75362;SDS011;64122;51.988;5.892;2023-02-10T12:39:51;40.78;;;17.67;;
75362;SDS011;64122;51.988;5.892;2023-02-10T12:42:34;30.42;;;13.10;;
75362;SDS011;64122;51.988;5.892;2023-02-10T12:45:14;35.17;;;13.05;;
75362;SDS011;64122;51.988;5.892;2023-02-10T12:47:52;32.60;;;13.98;;
75362;SDS011;64122;51.988;5.892;2023-02-10T12:50:33;39.25;;;14.65;;
75362;SDS011;64122;51.988;5.892;2023-02-10T12:53:13;28.02;;;11.77;;
75362;SDS011;64122;51.988;5.892;2023-02-10T12:55:50;30.27;;;12.38;;
75362;SDS011;64122;51.988;5.892;2023-02-10T12:58:27;33.47;;;12.50;;
75362;SDS011;64122;51.988;5.892;2023-02-10T13:01:05;33.47;;;11.13;;
75362;SDS011;64122;51.988;5.892;2023-02-10T13:03:41;38.38;;;12.52;;
75362;SDS011;64122;51.988;5.892;2023-02-10T13:06:19;31.00;;;10.85;;
75362;SDS011;64122;51.988;5.892;2023-02-10T13:08:54;32.15;;;13.05;;
75362;SDS011;64122;51.988;5.892;2023-02-10T13:11:30;30.10;;;12.05;;
75362;SDS011;64122;51.988;5.892;2023-02-10T13:14:12;29.38;;;9.85;;
75362;SDS011;64122;51.988;5.892;2023-02-10T13:16:50;23.25;;;9.13;;
75362;SDS011;64122;51.988;5.892;2023-02-10T13:19:24;27.30;;;10.25;;
75362;SDS011;64122;51.988;5.892;2023-02-10T13:22:00;25.63;;;10.20;;
75362;SDS011;64122;51.988;5.892;2023-02-10T13:24:36;24.48;;;9.63;;
75362;SDS011;64122;51.988;5.892;2023-02-10T13:27:16;25.58;;;9.02;;
75362;SDS011;64122;51.988;5.892;2023-02-10T13:29:58;31.30;;;10.38;;
75362;SDS011;64122;51.988;5.892;2023-02-10T13:32:49;27.17;;;10.45;;
75362;SDS011;64122;51.988;5.892;2023-02-10T13:35:26;32.63;;;10.23;;
75362;SDS011;64122;51.988;5.892;2023-02-10T13:37:58;29.48;;;11.07;;
75362;SDS011;64122;51.988;5.892;2023-02-10T13:40:45;29.30;;;11.65;;
75362;SDS011;64122;51.988;5.892;2023-02-10T13:43:21;40.50;;;16.30;;
75362;SDS011;64122;51.988;5.892;2023-02-10T13:45:57;31.45;;;12.75;;
75362;SDS011;64122;51.988;5.892;2023-02-10T13:48:33;33.45;;;12.20;;
75362;SDS011;64122;51.988;5.892;2023-02-10T13:51:05;34.72;;;10.95;;
75362;SDS011;64122;51.988;5.892;2023-02-10T13:53:38;27.23;;;12.38;;
75362;SDS011;64122;51.988;5.892;2023-02-10T13:56:12;30.95;;;13.20;;
75362;SDS011;64122;51.988;5.892;2023-02-10T13:58:53;30.05;;;11.55;;
75362;SDS011;64122;51.988;5.892;2023-02-10T14:01:37;30.05;;;12.57;;
75362;SDS011;64122;51.988;5.892;2023-02-10T14:06:58;38.30;;;12.27;;
75362;SDS011;64122;51.988;5.892;2023-02-10T14:09:33;27.02;;;12.30;;
75362;SDS011;64122;51.988;5.892;2023-02-10T14:12:22;49.42;;;24.48;;
75362;SDS011;64122;51.988;5.892;2023-02-10T14:14:54;36.42;;;13.27;;
75362;SDS011;64122;51.988;5.892;2023-02-10T14:17:26;34.00;;;14.65;;
75362;SDS011;64122;51.988;5.892;2023-02-10T14:19:58;40.60;;;15.15;;
75362;SDS011;64122;51.988;5.892;2023-02-10T14:22:30;33.40;;;13.52;;
75362;SDS011;64122;51.988;5.892;2023-02-10T14:25:04;34.38;;;15.13;;
75362;SDS011;64122;51.988;5.892;2023-02-10T14:27:46;43.67;;;18.17;;
75362;SDS011;64122;51.988;5.892;2023-02-10T14:30:20;45.92;;;21.17;;
75362;SDS011;64122;51.988;5.892;2023-02-10T14:32:54;42.78;;;17.20;;
75362;SDS011;64122;51.988;5.892;2023-02-10T14:35:25;35.92;;;17.08;;
75362;SDS011;64122;51.988;5.892;2023-02-10T14:37:59;40.20;;;18.48;;
75362;SDS011;64122;51.988;5.892;2023-02-10T14:40:30;52.60;;;21.65;;
75362;SDS011;64122;51.988;5.892;2023-02-10T14:43:01;46.55;;;23.52;;
75362;SDS011;64122;51.988;5.892;2023-02-10T14:45:31;55.40;;;24.48;;
75362;SDS011;64122;51.988;5.892;2023-02-10T14:48:08;64.65;;;30.98;;
75362;SDS011;64122;51.988;5.892;2023-02-10T14:50:41;54.05;;;24.73;;
75362;SDS011;64122;51.988;5.892;2023-02-10T14:53:16;54.47;;;26.10;;
75362;SDS011;64122;51.988;5.892;2023-02-10T14:55:52;63.30;;;26.25;;
75362;SDS011;64122;51.988;5.892;2023-02-10T14:58:27;52.20;;;26.83;;
75362;SDS011;64122;51.988;5.892;2023-02-10T15:01:04;55.40;;;26.98;;
75362;SDS011;64122;51.988;5.892;2023-02-10T15:03:43;57.45;;;28.90;;
75362;SDS011;64122;51.988;5.892;2023-02-10T15:06:15;81.93;;;40.38;;
75362;SDS011;64122;51.988;5.892;2023-02-10T15:08:58;62.75;;;30.73;;